Time;durP1;ratioP1;P1;durP2;ratioP2;P2;SDS_P1;SDS_P2;PMS_P1;PMS_P2;Temp;Humidity;BMP_temperature;BMP_pressure;BME280_temperature;BME280_humidity;BME280_pressure;Samples;Min_cycle;Max_cycle;Signal;HPM_P1;HPM_P2
2022/06/29 00:00:29;;;;;;;9.95;4.13;;;16.20;99.90;;;;;;5116080;27;20058;-74
2022/06/29 00:02:56;;;;;;;8.35;3.60;;;16.30;99.90;;;;;;5133702;27;20055;-75
2022/06/29 00:05:26;;;;;;;6.07;3.70;;;16.30;99.90;;;;;;5115863;27;20043;-75
2022/06/29 00:07:54;;;;;;;6.15;3.90;;;16.30;99.90;;;;;;5133712;27;20096;-76
2022/06/29 00:10:22;;;;;;;6.47;3.80;;;16.30;99.90;;;;;;5116426;27;20066;-75
2022/06/29 00:12:49;;;;;;;6.93;4.18;;;16.30;99.90;;;;;;5134000;27;20107;-75
2022/06/29 00:15:17;;;;;;;5.20;3.90;;;16.30;99.90;;;;;;5133660;27;20083;-75
2022/06/29 00:17:46;;;;;;;7.90;3.80;;;16.20;99.90;;;;;;5126447;27;20103;-75
2022/06/29 00:20:14;;;;;;;6.07;3.95;;;16.20;99.90;;;;;;5132008;27;20074;-74
2022/06/29 00:22:42;;;;;;;11.73;4.00;;;16.10;99.90;;;;;;5133434;27;20076;-74
2022/06/29 00:25:10;;;;;;;8.02;4.30;;;16.10;99.90;;;;;;5115837;27;20100;-75
2022/06/29 00:27:37;;;;;;;8.93;4.47;;;16.10;99.90;;;;;;5121690;27;20039;-76
2022/06/29 00:30:05;;;;;;;7.53;4.05;;;16.10;99.90;;;;;;5136013;27;20050;-76
2022/06/29 00:32:32;;;;;;;6.57;3.80;;;16.10;99.90;;;;;;5136404;27;20066;-74
2022/06/29 00:35:00;;;;;;;5.18;4.03;;;16.00;99.90;;;;;;5152718;27;20150;-75
2022/06/29 00:37:27;;;;;;;6.85;4.05;;;16.00;99.90;;;;;;5135315;27;20043;-75
2022/06/29 00:39:55;;;;;;;8.50;3.97;;;15.90;99.90;;;;;;5136443;27;20383;-76
2022/06/29 00:42:22;;;;;;;6.88;4.15;;;15.90;99.90;;;;;;5154175;27;20054;-75
2022/06/29 00:44:50;;;;;;;11.00;4.82;;;15.90;99.90;;;;;;5135464;27;20047;-76
2022/06/29 00:47:17;;;;;;;10.88;4.45;;;15.80;99.90;;;;;;5136071;27;20084;-75
2022/06/29 00:49:44;;;;;;;6.97;4.40;;;15.80;99.90;;;;;;5118736;28;20478;-76
2022/06/29 00:52:14;;;;;;;6.55;4.75;;;15.80;99.90;;;;;;5132978;28;20047;-75
2022/06/29 00:54:44;;;;;;;8.43;4.55;;;15.80;99.90;;;;;;5115706;28;20076;-76
2022/06/29 00:57:18;;;;;;;9.82;4.72;;;15.70;99.90;;;;;;5133015;28;20120;-75
2022/06/29 00:59:48;;;;;;;7.78;4.45;;;15.70;99.90;;;;;;5134280;28;20103;-75
2022/06/29 01:02:16;;;;;;;7.63;4.73;;;15.70;99.90;;;;;;5133425;28;20043;-76
2022/06/29 01:04:44;;;;;;;9.95;5.30;;;15.60;99.90;;;;;;5133643;28;21329;-76
2022/06/29 01:07:15;;;;;;;7.90;4.90;;;15.60;99.90;;;;;;5133764;28;20092;-76
2022/06/29 01:09:42;;;;;;;8.23;4.80;;;15.50;99.90;;;;;;5133604;28;20096;-75
2022/06/29 01:12:10;;;;;;;7.88;4.70;;;15.50;99.90;;;;;;5132802;28;20518;-76
2022/06/29 01:14:37;;;;;;;9.18;4.72;;;15.50;99.90;;;;;;5133577;28;20089;-75
2022/06/29 01:17:04;;;;;;;6.20;4.90;;;15.50;99.90;;;;;;5113862;28;20100;-74
2022/06/29 01:19:31;;;;;;;5.50;4.75;;;15.50;99.90;;;;;;5132294;28;20051;-73
2022/06/29 01:22:01;;;;;;;10.43;5.53;;;15.50;99.90;;;;;;5135760;27;20043;-73
2022/06/29 01:24:29;;;;;;;8.70;5.05;;;15.50;99.90;;;;;;5137230;27;20509;-74
2022/06/29 01:26:56;;;;;;;8.45;4.72;;;15.40;99.90;;;;;;5118176;27;20108;-75
2022/06/29 01:29:23;;;;;;;6.20;5.20;;;15.50;99.90;;;;;;5137136;27;20043;-75
2022/06/29 01:31:55;;;;;;;9.40;5.75;;;15.50;99.90;;;;;;5119037;27;20043;-75
2022/06/29 01:34:22;;;;;;;8.27;5.53;;;15.50;99.90;;;;;;5136623;27;20083;-75
2022/06/29 01:36:49;;;;;;;5.65;4.53;;;15.50;99.90;;;;;;5137872;27;20494;-74
2022/06/29 01:39:16;;;;;;;8.60;4.50;;;15.50;99.90;;;;;;5137365;27;20114;-74
2022/06/29 01:41:44;;;;;;;7.45;4.47;;;15.50;99.90;;;;;;5118698;27;20063;-75
2022/06/29 01:44:11;;;;;;;7.72;5.10;;;15.50;99.90;;;;;;5118548;27;20050;-74
2022/06/29 01:46:38;;;;;;;6.88;4.55;;;15.60;99.90;;;;;;5118177;27;20100;-74
2022/06/29 01:49:05;;;;;;;9.45;4.90;;;15.60;99.90;;;;;;5136976;27;20463;-75
2022/06/29 01:51:32;;;;;;;5.80;4.35;;;15.70;99.90;;;;;;5118359;27;20051;-75
2022/06/29 01:53:58;;;;;;;8.93;4.93;;;15.70;99.90;;;;;;5136168;27;20487;-75
2022/06/29 01:56:25;;;;;;;11.52;5.18;;;15.70;99.90;;;;;;5118816;27;20498;-74
2022/06/29 01:58:54;;;;;;;7.45;4.85;;;15.70;99.90;;;;;;5136134;27;20055;-74
2022/06/29 02:01:21;;;;;;;5.70;4.75;;;15.70;99.90;;;;;;5117588;27;20047;-75
2022/06/29 02:03:48;;;;;;;7.47;4.97;;;15.80;99.90;;;;;;5118450;27;20104;-75
2022/06/29 02:06:15;;;;;;;6.93;5.22;;;15.90;99.90;;;;;;5118110;27;20051;-74
2022/06/29 02:08:42;;;;;;;13.25;5.10;;;15.90;99.90;;;;;;5117693;27;20043;-76
2022/06/29 02:11:08;;;;;;;6.10;4.72;;;15.90;99.90;;;;;;5126084;27;20471;-75
2022/06/29 02:13:35;;;;;;;7.53;5.15;;;16.00;99.90;;;;;;5157008;27;20042;-75
2022/06/29 02:16:04;;;;;;;6.80;5.00;;;16.00;99.90;;;;;;5137982;27;20046;-75
2022/06/29 02:18:31;;;;;;;7.13;4.43;;;16.00;99.90;;;;;;5157113;27;20043;-75
2022/06/29 02:20:58;;;;;;;7.43;4.90;;;16.00;99.90;;;;;;5156675;27;20050;-76
2022/06/29 02:23:24;;;;;;;5.93;4.80;;;16.10;99.90;;;;;;5138022;27;20046;-76
2022/06/29 02:25:51;;;;;;;6.85;5.03;;;16.10;99.90;;;;;;5153434;27;20452;-75
2022/06/29 02:28:18;;;;;;;6.03;4.72;;;16.10;99.90;;;;;;5135898;27;20047;-75
2022/06/29 02:36:15;;;;;;;9.93;4.90;;;16.10;99.90;;;;;;5137537;27;20502;-75
2022/06/29 02:38:42;;;;;;;8.70;4.43;;;16.10;99.90;;;;;;5156802;27;20047;-75
2022/06/29 02:41:09;;;;;;;6.38;4.55;;;16.10;99.90;;;;;;5156484;27;20055;-75
2022/06/29 02:43:37;;;;;;;7.38;5.07;;;16.10;99.90;;;;;;5137462;27;20073;-75
2022/06/29 02:46:04;;;;;;;7.82;5.03;;;16.10;99.90;;;;;;5156642;27;20076;-75
2022/06/29 02:48:33;;;;;;;6.82;4.30;;;16.10;99.90;;;;;;5128814;27;20047;-76
2022/06/29 02:51:00;;;;;;;7.07;4.47;;;16.00;99.90;;;;;;5136290;27;20046;-74
2022/06/29 02:53:27;;;;;;;9.45;4.78;;;16.10;99.90;;;;;;5138370;27;20055;-74
2022/06/29 02:55:53;;;;;;;6.63;4.53;;;16.00;99.90;;;;;;5133794;27;20564;-75
2022/06/29 02:58:20;;;;;;;9.70;4.90;;;16.00;99.90;;;;;;5135045;27;20486;-75
2022/06/29 03:00:47;;;;;;;7.55;5.15;;;16.10;99.90;;;;;;5135360;27;20055;-75
2022/06/29 03:03:14;;;;;;;7.53;4.35;;;16.10;99.90;;;;;;5116855;27;20051;-75
2022/06/29 03:05:42;;;;;;;6.20;4.05;;;16.10;99.90;;;;;;5115877;27;20051;-74
2022/06/29 03:08:09;;;;;;;5.78;4.15;;;16.10;99.90;;;;;;5135209;27;20063;-75
2022/06/29 03:10:36;;;;;;;5.13;4.55;;;16.10;99.90;;;;;;5116897;27;20051;-74
2022/06/29 03:13:03;;;;;;;7.50;4.57;;;16.10;99.90;;;;;;5116300;27;20051;-74
2022/06/29 03:15:30;;;;;;;7.47;4.40;;;16.10;99.90;;;;;;5134751;27;20051;-74
2022/06/29 03:17:57;;;;;;;4.88;4.38;;;16.10;99.90;;;;;;5115878;27;20043;-74
2022/06/29 03:20:24;;;;;;;6.75;4.90;;;16.10;99.90;;;;;;5116671;27;20055;-74
2022/06/29 03:22:52;;;;;;;7.68;4.82;;;16.10;99.90;;;;;;5116624;27;20465;-74
2022/06/29 03:25:19;;;;;;;5.25;4.45;;;16.10;99.90;;;;;;5134425;27;20043;-74
2022/06/29 03:27:46;;;;;;;7.78;4.50;;;16.10;99.90;;;;;;5135759;27;20371;-73
2022/06/29 03:30:13;;;;;;;5.85;4.10;;;16.00;99.90;;;;;;5137094;27;20058;-74
2022/06/29 03:32:41;;;;;;;7.30;4.78;;;16.00;99.90;;;;;;5154732;27;20099;-74
2022/06/29 03:35:08;;;;;;;6.55;4.90;;;16.00;99.90;;;;;;5155427;27;20500;-75
2022/06/29 03:37:35;;;;;;;8.95;4.78;;;16.00;99.90;;;;;;5137271;27;20059;-74
2022/06/29 03:40:04;;;;;;;6.65;4.20;;;15.90;99.90;;;;;;5156232;27;20050;-74
2022/06/29 03:42:31;;;;;;;7.60;4.63;;;16.00;99.90;;;;;;5155644;27;20502;-74
2022/06/29 03:44:58;;;;;;;6.18;4.35;;;16.00;99.90;;;;;;5137027;27;20106;-74
2022/06/29 03:47:25;;;;;;;8.00;4.20;;;16.00;99.90;;;;;;5137783;27;20054;-74
2022/06/29 03:49:53;;;;;;;4.80;3.67;;;16.00;99.90;;;;;;5157291;27;20126;-73
2022/06/29 03:52:19;;;;;;;5.07;3.85;;;16.00;99.90;;;;;;5147515;27;20057;-75
2022/06/29 03:54:46;;;;;;;7.07;4.47;;;16.10;99.90;;;;;;5122771;27;20066;-74
2022/06/29 03:57:15;;;;;;;5.28;4.25;;;16.40;99.90;;;;;;5131282;27;20460;-74
2022/06/29 03:59:41;;;;;;;8.63;4.43;;;16.50;99.90;;;;;;5128470;27;20422;-74
2022/06/29 04:02:09;;;;;;;7.05;5.10;;;16.50;99.90;;;;;;5151154;27;20378;-74
2022/06/29 04:04:35;;;;;;;7.55;4.70;;;16.50;99.90;;;;;;5129861;27;20047;-74
2022/06/29 04:07:02;;;;;;;5.07;3.78;;;16.50;99.90;;;;;;5149314;27;20043;-74
2022/06/29 04:09:29;;;;;;;6.60;4.03;;;16.60;99.90;;;;;;5147797;27;20371;-74
2022/06/29 04:11:57;;;;;;;6.30;4.30;;;16.80;99.90;;;;;;5149536;27;20111;-74
2022/06/29 04:14:26;;;;;;;6.18;3.95;;;16.80;99.90;;;;;;5148111;27;20050;-73
2022/06/29 04:16:55;;;;;;;6.65;4.30;;;16.80;99.90;;;;;;5146625;27;20436;-73
2022/06/29 04:19:22;;;;;;;9.52;4.95;;;16.80;99.90;;;;;;5147997;27;20046;-74
2022/06/29 04:21:49;;;;;;;6.70;4.72;;;16.80;99.90;;;;;;5152553;27;20091;-75
2022/06/29 04:24:16;;;;;;;4.95;4.43;;;16.90;99.90;;;;;;5124878;27;20055;-74
2022/06/29 04:26:43;;;;;;;7.72;4.78;;;17.00;99.90;;;;;;5143803;27;20081;-74
2022/06/29 04:29:11;;;;;;;6.30;4.25;;;17.10;99.90;;;;;;5146403;27;20042;-74
2022/06/29 04:31:39;;;;;;;7.32;4.88;;;17.10;99.90;;;;;;5146529;27;20088;-73
2022/06/29 04:34:06;;;;;;;8.75;4.82;;;17.20;99.90;;;;;;5146721;27;20467;-74
2022/06/29 04:36:33;;;;;;;8.68;3.85;;;17.30;99.90;;;;;;5133421;27;20046;-74
2022/06/29 04:39:00;;;;;;;6.43;4.80;;;17.40;99.90;;;;;;5145224;27;20495;-75
2022/06/29 04:41:27;;;;;;;7.55;4.68;;;17.50;99.90;;;;;;5124776;27;20410;-74
2022/06/29 04:43:54;;;;;;;4.88;4.38;;;17.50;99.90;;;;;;5147578;27;20084;-74
2022/06/29 04:46:21;;;;;;;8.80;4.68;;;17.50;99.90;;;;;;5134409;27;20043;-76
2022/06/29 04:48:52;;;;;;;11.77;5.05;;;17.50;99.90;;;;;;5133783;27;20092;-75
2022/06/29 04:51:18;;;;;;;;;;;17.50;99.90;;;;;;5115952;28;20062;-75
2022/06/29 04:53:46;;;;;;;7.60;4.80;;;17.40;99.90;;;;;;5136196;27;19931;-75
2022/06/29 04:56:14;;;;;;;8.23;4.72;;;17.40;99.90;;;;;;5133700;27;20463;-74
2022/06/29 04:58:42;;;;;;;7.22;4.95;;;17.30;99.90;;;;;;5118567;27;20046;-74
2022/06/29 05:01:09;;;;;;;5.57;4.53;;;17.40;99.90;;;;;;5156588;27;20493;-74
2022/06/29 05:03:36;;;;;;;9.43;4.90;;;17.40;99.90;;;;;;5132385;27;20502;-80
2022/06/29 05:06:04;;;;;;;6.85;4.25;;;17.50;99.90;;;;;;5135939;27;20510;-74
2022/06/29 05:08:31;;;;;;;7.25;4.47;;;17.60;99.90;;;;;;5117248;27;20043;-74
2022/06/29 05:10:58;;;;;;;5.57;4.30;;;17.70;99.90;;;;;;5128474;27;20055;-74
2022/06/29 05:13:25;;;;;;;8.95;5.07;;;17.80;99.90;;;;;;5152864;27;20096;-75
2022/06/29 05:15:52;;;;;;;9.27;4.30;;;17.90;99.90;;;;;;5148019;27;20111;-73
2022/06/29 05:18:19;;;;;;;7.30;4.38;;;18.10;99.90;;;;;;5134678;27;20102;-73
2022/06/29 05:20:46;;;;;;;5.90;4.53;;;18.30;99.90;;;;;;5136350;27;20087;-75
2022/06/29 05:23:14;;;;;;;5.25;3.60;;;18.30;99.90;;;;;;5131827;27;20055;-73
2022/06/29 05:25:41;;;;;;;8.38;4.75;;;18.40;99.90;;;;;;5151915;27;20046;-74
2022/06/29 05:28:08;;;;;;;5.53;3.90;;;18.50;99.90;;;;;;5132997;27;20529;-75
2022/06/29 05:30:35;;;;;;;7.05;3.97;;;18.70;99.90;;;;;;5136130;27;20046;-74
2022/06/29 05:33:02;;;;;;;9.07;3.78;;;18.80;99.90;;;;;;5149845;27;20051;-74
2022/06/29 05:35:33;;;;;;;8.50;4.50;;;18.90;99.90;;;;;;5150254;27;20038;-73
2022/06/29 05:38:00;;;;;;;5.47;4.05;;;19.00;99.90;;;;;;5148273;27;20511;-74
2022/06/29 05:40:28;;;;;;;11.32;5.13;;;18.90;99.90;;;;;;5147158;27;20038;-73
2022/06/29 05:42:55;;;;;;;7.53;4.38;;;19.00;99.90;;;;;;5130850;27;20059;-73
2022/06/29 05:45:22;;;;;;;6.05;4.15;;;19.10;99.90;;;;;;5151009;27;20051;-73
2022/06/29 05:47:49;;;;;;;5.13;4.03;;;19.10;99.90;;;;;;5150876;27;20043;-74
2022/06/29 05:50:16;;;;;;;5.32;4.45;;;19.20;99.90;;;;;;5136130;27;20050;-73
2022/06/29 05:52:42;;;;;;;6.47;4.28;;;19.20;99.90;;;;;;5130106;27;20111;-73
2022/06/29 05:55:09;;;;;;;6.78;4.43;;;19.20;99.90;;;;;;5135061;27;20042;-73
2022/06/29 05:57:38;;;;;;;5.00;4.03;;;19.20;99.90;;;;;;5129365;27;20102;-74
2022/06/29 06:00:06;;;;;;;5.30;4.10;;;19.40;99.90;;;;;;5149415;27;20043;-74
2022/06/29 06:02:33;;;;;;;10.48;4.32;;;19.50;99.90;;;;;;5145168;27;20102;-74
2022/06/29 06:05:00;;;;;;;6.40;4.63;;;19.70;99.90;;;;;;5130382;27;20050;-74
2022/06/29 06:07:27;;;;;;;7.20;4.10;;;19.90;99.90;;;;;;5154943;27;20051;-74
2022/06/29 06:09:53;;;;;;;4.40;3.83;;;20.10;99.90;;;;;;5146948;27;20039;-75
2022/06/29 06:12:20;;;;;;;6.97;4.05;;;20.40;99.90;;;;;;5148074;27;20088;-75
2022/06/29 06:14:49;;;;;;;4.57;3.03;;;20.40;99.90;;;;;;5147529;27;20095;-74
2022/06/29 06:17:15;;;;;;;4.35;3.70;;;20.60;99.90;;;;;;5147508;27;20108;-75
2022/06/29 06:19:42;;;;;;;3.53;2.80;;;20.80;99.90;;;;;;5131440;27;20123;-74
2022/06/29 06:22:09;;;;;;;9.60;3.90;;;20.90;99.90;;;;;;5145617;27;20039;-74
2022/06/29 06:24:36;;;;;;;4.22;3.25;;;21.10;99.90;;;;;;5146994;27;20443;-75
2022/06/29 06:27:03;;;;;;;7.90;3.13;;;21.30;99.90;;;;;;5147951;27;20047;-74
2022/06/29 06:29:30;;;;;;;4.20;3.10;;;21.40;99.90;;;;;;5137019;27;20429;-74
2022/06/29 06:31:58;;;;;;;4.88;2.97;;;21.60;99.90;;;;;;5150414;27;20550;-73
2022/06/29 06:34:26;;;;;;;7.07;2.88;;;21.60;99.90;;;;;;5128197;27;20456;-74
2022/06/29 06:36:53;;;;;;;20.67;3.22;;;21.70;99.90;;;;;;5124647;27;20046;-73
2022/06/29 06:39:19;;;;;;;5.63;2.78;;;21.80;99.90;;;;;;5130533;27;20095;-73
2022/06/29 06:41:45;;;;;;;7.00;2.60;;;21.90;99.90;;;;;;5148496;27;20186;-73
2022/06/29 06:44:12;;;;;;;5.80;3.20;;;22.00;99.90;;;;;;5127561;27;20054;-73
2022/06/29 06:46:41;;;;;;;6.10;3.50;;;22.10;99.90;;;;;;5133359;27;20079;-73
2022/06/29 06:49:09;;;;;;;4.40;2.42;;;22.20;99.90;;;;;;5130273;27;20107;-75
2022/06/29 06:51:36;;;;;;;6.53;2.80;;;22.50;99.90;;;;;;5151802;27;20450;-74
2022/06/29 06:54:03;;;;;;;3.17;2.60;;;22.70;99.90;;;;;;5151032;27;20043;-74
2022/06/29 06:56:30;;;;;;;4.22;2.53;;;22.80;99.90;;;;;;5144364;27;20046;-74
2022/06/29 06:58:57;;;;;;;5.63;2.38;;;22.90;99.90;;;;;;5131419;27;20051;-72
2022/06/29 07:01:24;;;;;;;3.95;2.22;;;23.20;99.90;;;;;;5145347;27;20093;-74
2022/06/29 07:03:51;;;;;;;5.13;2.38;;;23.40;99.90;;;;;;5130054;27;20050;-75
2022/06/29 07:06:19;;;;;;;5.22;2.08;;;23.50;99.30;;;;;;5133798;27;20039;-74
2022/06/29 07:08:46;;;;;;;4.40;2.40;;;23.60;98.10;;;;;;5133467;27;20051;-75
2022/06/29 07:11:14;;;;;;;4.13;2.30;;;23.80;97.30;;;;;;5145789;27;20047;-75
2022/06/29 07:13:41;;;;;;;7.13;2.28;;;23.90;96.40;;;;;;5147529;27;20102;-75
2022/06/29 07:16:08;;;;;;;3.45;2.03;;;24.10;96.60;;;;;;5129888;27;20432;-75
2022/06/29 07:18:35;;;;;;;2.70;1.90;;;24.40;96.30;;;;;;5125921;27;20095;-75
2022/06/29 07:21:02;;;;;;;3.55;2.30;;;24.80;95.60;;;;;;5128355;27;20043;-75
2022/06/29 07:23:30;;;;;;;5.63;2.50;;;25.00;95.20;;;;;;5146687;27;20402;-75
2022/06/29 07:25:58;;;;;;;4.22;1.90;;;25.30;94.60;;;;;;5145704;27;20051;-74
2022/06/29 07:28:25;;;;;;;4.10;2.00;;;25.40;93.40;;;;;;5149698;27;20458;-75
2022/06/29 07:30:51;;;;;;;4.68;2.22;;;25.50;92.80;;;;;;5133090;27;20043;-75
2022/06/29 07:33:18;;;;;;;5.03;1.80;;;25.70;92.40;;;;;;5130857;27;20047;-74
2022/06/29 07:35:45;;;;;;;2.72;1.70;;;25.80;92.10;;;;;;5149332;27;20447;-74
2022/06/29 07:38:14;;;;;;;3.45;1.60;;;25.80;91.90;;;;;;5145858;27;20046;-75
2022/06/29 07:40:42;;;;;;;5.07;1.55;;;26.10;91.40;;;;;;5147723;27;20043;-74
2022/06/29 07:43:09;;;;;;;3.40;1.88;;;26.20;90.60;;;;;;5146036;27;20046;-74
2022/06/29 07:45:36;;;;;;;5.07;1.58;;;26.30;90.30;;;;;;5146995;27;20087;-75
2022/06/29 07:48:03;;;;;;;3.33;1.60;;;26.50;90.00;;;;;;5145834;27;20047;-74
2022/06/29 07:50:31;;;;;;;5.80;1.90;;;26.60;89.00;;;;;;5144901;27;20045;-75
2022/06/29 07:52:58;;;;;;;3.05;1.52;;;26.90;88.60;;;;;;5129698;27;20055;-75
2022/06/29 07:55:25;;;;;;;4.75;1.67;;;27.00;88.10;;;;;;5149380;27;20398;-74
2022/06/29 07:57:53;;;;;;;4.03;1.73;;;27.40;87.50;;;;;;5147395;27;20085;-75
2022/06/29 08:00:21;;;;;;;5.15;1.60;;;27.40;86.30;;;;;;5146699;27;20626;-75
2022/06/29 08:02:51;;;;;;;3.97;1.85;;;27.60;85.70;;;;;;5147028;27;20042;-74
2022/06/29 08:05:18;;;;;;;5.07;1.70;;;27.70;85.60;;;;;;5146083;27;20046;-75
2022/06/29 08:07:45;;;;;;;4.13;1.88;;;27.80;84.40;;;;;;5132867;27;20110;-75
2022/06/29 08:10:12;;;;;;;3.85;1.70;;;27.90;83.90;;;;;;5146937;27;20043;-75
2022/06/29 08:12:38;;;;;;;4.25;1.90;;;28.10;83.30;;;;;;5127219;27;20043;-75
2022/06/29 08:15:08;;;;;;;4.25;1.67;;;28.30;83.10;;;;;;5127454;27;20096;-74
2022/06/29 08:17:35;;;;;;;4.80;2.22;;;28.40;81.70;;;;;;5125130;27;20125;-75
2022/06/29 08:20:03;;;;;;;5.50;1.65;;;28.50;81.90;;;;;;5126486;27;20057;-75
2022/06/29 08:22:30;;;;;;;3.35;1.83;;;28.80;81.30;;;;;;5127745;27;20130;-75
2022/06/29 08:24:57;;;;;;;4.35;1.50;;;29.10;80.50;;;;;;5147925;27;20403;-75
2022/06/29 08:27:24;;;;;;;3.30;1.95;;;29.40;80.20;;;;;;5143109;27;20039;-74
2022/06/29 08:29:51;;;;;;;3.75;1.50;;;29.60;79.20;;;;;;5133546;27;20046;-73
2022/06/29 08:32:20;;;;;;;2.53;1.58;;;29.90;79.30;;;;;;5145466;27;20043;-74
2022/06/29 08:34:47;;;;;;;2.80;1.70;;;29.60;78.50;;;;;;5128931;27;20125;-75
2022/06/29 08:37:14;;;;;;;4.05;1.60;;;29.10;78.50;;;;;;5147187;27;20095;-74
2022/06/29 08:39:41;;;;;;;3.22;1.67;;;29.00;78.20;;;;;;5128579;27;20039;-74
2022/06/29 08:42:09;;;;;;;5.03;1.70;;;28.90;78.20;;;;;;5149741;27;20096;-74
2022/06/29 08:44:38;;;;;;;6.10;1.60;;;29.00;78.60;;;;;;5146593;27;20053;-74
2022/06/29 08:47:06;;;;;;;3.63;1.40;;;28.90;78.30;;;;;;5144139;27;20498;-75
2022/06/29 08:49:36;;;;;;;4.38;1.50;;;29.00;78.70;;;;;;5109289;27;20451;-75
2022/06/29 08:52:05;;;;;;;4.30;1.80;;;29.10;79.30;;;;;;5108669;27;20489;-74
2022/06/29 08:54:36;;;;;;;3.00;1.67;;;29.00;79.20;;;;;;5146612;27;20038;-75
2022/06/29 08:57:04;;;;;;;3.85;1.60;;;29.30;77.80;;;;;;5128263;27;20507;-75
2022/06/29 08:59:33;;;;;;;4.55;1.30;;;29.30;77.80;;;;;;5129271;27;20042;-75
2022/06/29 09:02:00;;;;;;;3.85;1.73;;;29.20;77.30;;;;;;5146542;27;20054;-74
2022/06/29 09:04:27;;;;;;;2.70;1.45;;;29.10;76.70;;;;;;5146896;27;20078;-75
2022/06/29 09:06:56;;;;;;;1.95;1.30;;;28.90;76.90;;;;;;5130861;27;20050;-74
2022/06/29 09:09:24;;;;;;;2.85;1.50;;;28.80;77.20;;;;;;5145207;27;20088;-75
2022/06/29 09:11:52;;;;;;;3.35;1.42;;;28.60;76.70;;;;;;5146496;27;20469;-74
2022/06/29 09:14:21;;;;;;;3.03;1.63;;;28.40;77.20;;;;;;5148966;27;20099;-76
2022/06/29 09:16:53;;;;;;;3.70;1.55;;;28.60;77.80;;;;;;5125829;27;20055;-75
2022/06/29 09:19:21;;;;;;;2.88;1.73;;;29.00;77.50;;;;;;5148148;27;20561;-76
2022/06/29 09:21:49;;;;;;;4.20;1.48;;;29.60;75.90;;;;;;5131955;27;21680;-73
2022/06/29 09:24:18;;;;;;;2.67;1.50;;;30.00;74.60;;;;;;5148533;27;20138;-75
2022/06/29 09:26:49;;;;;;;2.13;1.30;;;30.30;74.10;;;;;;5145544;27;20095;-75
2022/06/29 09:29:21;;;;;;;3.95;1.50;;;30.20;72.40;;;;;;5148615;27;20068;-75
2022/06/29 09:32:12;;;;;;;3.38;1.55;;;30.10;72.10;;;;;;5145644;27;20073;-74
2022/06/29 09:34:41;;;;;;;3.40;1.40;;;30.20;70.90;;;;;;5144045;27;20131;-74
2022/06/29 09:37:10;;;;;;;4.97;1.20;;;30.20;71.20;;;;;;5124630;27;20055;-75
2022/06/29 09:39:39;;;;;;;2.88;1.73;;;30.50;71.30;;;;;;5125825;27;20055;-75
2022/06/29 09:42:09;;;;;;;4.63;1.30;;;30.70;70.60;;;;;;5143660;27;20055;-75
2022/06/29 09:44:36;;;;;;;8.73;1.70;;;30.90;70.90;;;;;;5128771;27;20058;-75
2022/06/29 09:47:06;;;;;;;4.85;1.70;;;31.20;70.50;;;;;;5146683;27;20062;-75
2022/06/29 09:49:33;;;;;;;;;;;31.10;70.20;;;;;;5147229;27;20091;-75
2022/06/29 09:52:02;;;;;;;3.78;1.38;;;30.70;68.30;;;;;;5146827;27;20332;-75
2022/06/29 09:54:32;;;;;;;3.72;1.45;;;30.70;70.30;;;;;;5134029;27;20051;-73
2022/06/29 09:57:01;;;;;;;2.60;1.35;;;30.80;69.20;;;;;;5145846;27;20059;-72
2022/06/29 10:02:37;;;;;;;5.13;1.48;;;31.10;69.30;;;;;;5144705;27;20039;-76
2022/06/29 10:05:07;;;;;;;2.28;1.60;;;31.50;69.50;;;;;;5127330;27;20055;-75
2022/06/29 10:07:35;;;;;;;2.65;1.63;;;31.90;69.80;;;;;;5130344;27;20046;-74
2022/06/29 10:10:05;;;;;;;5.90;1.70;;;32.00;68.80;;;;;;5151123;27;20042;-75
2022/06/29 10:16:08;;;;;;;2.92;1.48;;;32.30;65.90;;;;;;5129102;27;20049;-76
2022/06/29 10:18:54;;;;;;;4.55;1.52;;;32.60;63.80;;;;;;5150668;27;20482;-76
2022/06/29 10:21:24;;;;;;;2.72;1.40;;;32.80;62.70;;;;;;5131815;27;20091;-75
2022/06/29 10:23:51;;;;;;;;;;;33.00;64.20;;;;;;5146454;27;20087;-76
2022/06/29 10:26:51;;;;;;;4.25;1.70;;;33.00;62.20;;;;;;5130607;27;19963;-75
2022/06/29 10:29:32;;;;;;;2.92;1.42;;;33.20;62.50;;;;;;5066314;28;20490;-75
2022/06/29 10:32:05;;;;;;;6.75;1.45;;;33.40;61.90;;;;;;5119873;27;20050;-75
2022/06/29 10:35:05;;;;;;;5.25;1.42;;;33.50;63.30;;;;;;5127605;27;20568;-76
2022/06/29 10:37:30;;;;;;;2.47;1.20;;;33.70;61.10;;;;;;5126348;27;20486;-75
2022/06/29 10:40:00;;;;;;;2.55;1.42;;;33.40;62.40;;;;;;5130090;27;20082;-77
2022/06/29 10:45:37;;;;;;;2.70;1.30;;;34.00;61.90;;;;;;5127073;27;20043;-77
2022/06/29 10:48:16;;;;;;;2.35;1.30;;;34.20;60.80;;;;;;5129893;27;20514;-75
2022/06/29 10:50:47;;;;;;;2.05;1.30;;;34.50;60.30;;;;;;5127081;27;20115;-76
2022/06/29 10:53:17;;;;;;;4.30;1.38;;;34.50;60.70;;;;;;5129124;27;20088;-73
2022/06/29 10:55:46;;;;;;;2.83;1.40;;;34.30;60.90;;;;;;5143919;27;20414;-75
2022/06/29 10:58:13;;;;;;;2.30;1.23;;;33.90;59.40;;;;;;5146120;27;20065;-75
2022/06/29 11:00:42;;;;;;;2.95;1.50;;;33.90;59.80;;;;;;5148249;27;20542;-75
2022/06/29 11:03:15;;;;;;;3.20;1.20;;;34.00;60.30;;;;;;5127332;27;20051;-75
2022/06/29 11:14:02;;;;;;;2.97;1.20;;;34.60;59.40;;;;;;5147114;27;20053;-75
2022/06/29 11:16:33;;;;;;;2.50;1.42;;;34.80;59.30;;;;;;5148673;27;20046;-75
2022/06/29 11:19:00;;;;;;;3.72;1.10;;;34.80;59.60;;;;;;5132949;27;20564;-75
2022/06/29 11:21:29;;;;;;;3.92;1.40;;;34.70;59.30;;;;;;5148405;27;20035;-76
2022/06/29 11:23:57;;;;;;;;;;;34.70;58.80;;;;;;5131337;27;20047;-75
2022/06/29 11:26:24;;;;;;;6.22;1.35;;;34.60;58.70;;;;;;5130719;27;19923;-76
2022/06/29 11:28:51;;;;;;;2.05;1.23;;;34.50;58.90;;;;;;5131980;27;20048;-75
2022/06/29 11:31:19;;;;;;;3.97;1.25;;;34.60;59.20;;;;;;5148478;27;20092;-76
2022/06/29 11:33:49;;;;;;;3.63;1.30;;;34.80;58.60;;;;;;5129833;27;20047;-75
2022/06/29 11:36:18;;;;;;;2.40;1.10;;;34.70;58.10;;;;;;5127387;27;20051;-77
2022/06/29 11:38:47;;;;;;;2.40;1.17;;;34.60;57.60;;;;;;5147487;27;20187;-77
2022/06/29 11:41:15;;;;;;;3.90;1.30;;;34.60;57.60;;;;;;5131313;27;20051;-75
2022/06/29 11:43:43;;;;;;;2.03;1.33;;;34.70;57.90;;;;;;5150233;27;20102;-75
2022/06/29 11:46:19;;;;;;;2.80;1.33;;;34.70;57.80;;;;;;5148274;27;20047;-75
2022/06/29 11:51:36;;;;;;;2.45;1.30;;;34.80;57.80;;;;;;5129312;27;20125;-75
2022/06/29 11:54:06;;;;;;;3.95;1.50;;;34.80;57.70;;;;;;5147434;27;20055;-76
2022/06/29 11:56:34;;;;;;;2.85;1.35;;;35.10;56.70;;;;;;5145146;27;20047;-75
2022/06/29 11:59:05;;;;;;;2.25;1.10;;;35.30;57.30;;;;;;5145713;27;20053;-76
2022/06/29 12:01:32;;;;;;;2.03;1.05;;;35.10;55.90;;;;;;5130614;27;20035;-76
2022/06/29 12:04:01;;;;;;;5.65;1.42;;;35.10;56.20;;;;;;5129563;27;20051;-75
2022/06/29 12:06:29;;;;;;;5.25;1.42;;;35.00;56.00;;;;;;5150011;27;20042;-75
2022/06/29 12:08:57;;;;;;;1.80;1.30;;;34.70;56.10;;;;;;5151399;27;20047;-75
2022/06/29 12:11:25;;;;;;;5.10;1.20;;;34.70;57.00;;;;;;5129373;27;20308;-75
2022/06/29 12:13:52;;;;;;;2.75;1.17;;;34.80;57.60;;;;;;5142991;27;20066;-76
2022/06/29 12:16:19;;;;;;;1.90;1.10;;;35.10;55.90;;;;;;5126277;27;20111;-76
2022/06/29 12:18:46;;;;;;;2.00;1.30;;;34.90;54.90;;;;;;5146271;27;20079;-76
2022/06/29 12:21:14;;;;;;;2.75;1.27;;;35.00;55.40;;;;;;5128167;27;20043;-75
2022/06/29 12:23:41;;;;;;;8.43;1.53;;;35.40;55.70;;;;;;5130507;27;20091;-76
2022/06/29 12:26:08;;;;;;;4.30;1.52;;;35.30;55.70;;;;;;5116966;27;20062;-76
2022/06/29 12:28:37;;;;;;;1.83;1.13;;;35.20;55.50;;;;;;5147714;27;20570;-76
2022/06/29 12:31:04;;;;;;;2.78;1.50;;;35.20;55.60;;;;;;5122611;27;20051;-76
2022/06/29 12:33:31;;;;;;;3.20;1.63;;;34.90;55.60;;;;;;5086094;27;20281;-76
2022/06/29 12:35:58;;;;;;;3.40;1.30;;;34.40;55.80;;;;;;5126832;27;20410;-76
2022/06/29 12:38:27;;;;;;;2.00;1.52;;;34.10;56.60;;;;;;5084469;27;20047;-74
2022/06/29 12:40:55;;;;;;;2.47;1.20;;;33.60;57.40;;;;;;5126578;27;20039;-76
2022/06/29 12:43:22;;;;;;;4.65;1.55;;;33.90;57.60;;;;;;5147054;27;20057;-76
2022/06/29 12:45:49;;;;;;;4.72;1.75;;;34.20;57.80;;;;;;5143060;27;20421;-76
2022/06/29 12:48:16;;;;;;;2.30;1.60;;;34.10;57.70;;;;;;5125991;27;20050;-75
2022/06/29 12:50:42;;;;;;;2.67;1.75;;;34.50;57.60;;;;;;5144766;27;20043;-75
2022/06/29 12:53:09;;;;;;;5.25;2.17;;;34.50;57.00;;;;;;5148688;27;20100;-75
2022/06/29 12:55:38;;;;;;;4.05;2.08;;;34.20;57.00;;;;;;5125030;27;20039;-74
2022/06/29 12:58:05;;;;;;;2.75;2.10;;;34.20;57.30;;;;;;5130306;27;20154;-76
2022/06/29 13:00:33;;;;;;;2.80;2.08;;;34.20;57.20;;;;;;5133983;27;20451;-75
2022/06/29 13:03:00;;;;;;;2.53;2.10;;;34.20;57.20;;;;;;5145877;27;20046;-76
2022/06/29 13:05:26;;;;;;;3.88;2.47;;;34.10;57.10;;;;;;5126222;27;20459;-76
2022/06/29 13:07:53;;;;;;;3.53;2.13;;;34.20;57.70;;;;;;5151213;27;20047;-75
2022/06/29 13:10:20;;;;;;;3.03;2.15;;;34.30;57.80;;;;;;5128394;27;20042;-75
2022/06/29 13:12:49;;;;;;;3.38;2.50;;;34.30;58.00;;;;;;5148354;27;20552;-75
2022/06/29 13:15:16;;;;;;;5.47;2.10;;;34.20;57.60;;;;;;5131379;27;20088;-76
2022/06/29 13:17:43;;;;;;;4.25;2.38;;;34.30;57.70;;;;;;5129977;27;20284;-75